Time;durP1;ratioP1;P1;durP2;ratioP2;P2;SDS_P1;SDS_P2;PMS_P1;PMS_P2;Temp;Humidity;BMP_temperature;BMP_pressure;BME280_temperature;BME280_humidity;BME280_pressure;Samples;Min_cycle;Max_cycle;Signal;HPM_P1;HPM_P2
2023/12/06 00:01:59;;;;;;;24.10;16.13;;;4.60;99.90;;;;;;5085885;28;20631;-63
2023/12/06 00:04:26;;;;;;;25.73;17.13;;;4.60;99.80;;;;;;5080518;28;20237;-63
2023/12/06 00:06:53;;;;;;;25.83;17.00;;;4.50;99.80;;;;;;5080014;28;20203;-63
2023/12/06 00:09:21;;;;;;;27.77;17.93;;;4.40;99.90;;;;;;5083418;28;20220;-63
2023/12/06 00:11:48;;;;;;;24.03;16.77;;;4.40;99.90;;;;;;5075456;28;20662;-63
2023/12/06 00:14:15;;;;;;;25.80;18.00;;;4.50;99.90;;;;;;5080917;28;20189;-63
2023/12/06 00:16:42;;;;;;;24.27;16.57;;;4.50;99.90;;;;;;5079340;28;20219;-62
2023/12/06 00:19:09;;;;;;;27.37;17.20;;;4.50;99.90;;;;;;5084713;28;20576;-62
2023/12/06 00:21:37;;;;;;;25.27;16.70;;;4.40;99.90;;;;;;5086251;28;20204;-63
2023/12/06 00:24:04;;;;;;;25.33;16.00;;;4.40;99.90;;;;;;5086818;28;20577;-63
2023/12/06 00:26:31;;;;;;;24.43;16.97;;;4.40;99.90;;;;;;5085193;28;20203;-63
2023/12/06 00:28:58;;;;;;;23.97;16.80;;;4.40;99.90;;;;;;5083852;28;20569;-63
2023/12/06 00:31:25;;;;;;;22.90;16.53;;;4.40;99.90;;;;;;5090256;28;20217;-63
2023/12/06 00:33:52;;;;;;;23.10;16.40;;;4.40;99.90;;;;;;5084534;28;20650;-63
2023/12/06 00:36:20;;;;;;;26.00;16.63;;;4.30;99.90;;;;;;5083244;28;20201;-63
2023/12/06 00:38:47;;;;;;;25.57;16.97;;;4.30;99.90;;;;;;5068614;28;20231;-62
2023/12/06 00:41:14;;;;;;;24.87;17.13;;;4.30;99.90;;;;;;5085144;28;20751;-63
2023/12/06 00:43:41;;;;;;;23.00;16.03;;;4.30;99.90;;;;;;5086798;28;20212;-62
2023/12/06 00:46:08;;;;;;;24.37;16.20;;;4.30;99.90;;;;;;5081795;28;20292;-63
2023/12/06 00:48:35;;;;;;;23.37;16.93;;;4.30;99.90;;;;;;5084588;28;20221;-63
2023/12/06 00:51:03;;;;;;;22.57;15.87;;;4.30;99.90;;;;;;5086830;28;20209;-63
2023/12/06 00:53:30;;;;;;;23.20;16.40;;;4.30;99.90;;;;;;5086415;28;20262;-63
2023/12/06 00:55:57;;;;;;;25.53;16.87;;;4.30;99.90;;;;;;5077755;28;20193;-63
2023/12/06 00:58:24;;;;;;;22.93;15.50;;;4.30;99.90;;;;;;5079853;28;20217;-63
2023/12/06 01:00:51;;;;;;;24.67;16.50;;;4.30;99.90;;;;;;5090220;28;20213;-63
2023/12/06 01:03:19;;;;;;;23.50;16.80;;;4.30;99.90;;;;;;5087400;28;20255;-63
2023/12/06 01:05:46;;;;;;;26.53;17.00;;;4.30;99.90;;;;;;5079435;28;20207;-63
2023/12/06 01:08:13;;;;;;;24.73;16.17;;;4.30;99.90;;;;;;5081893;28;20224;-63
2023/12/06 01:10:43;;;;;;;24.63;16.63;;;4.30;99.90;;;;;;5085867;28;20196;-63
2023/12/06 01:13:10;;;;;;;22.23;15.67;;;4.30;99.80;;;;;;5086381;28;20553;-63
2023/12/06 01:15:37;;;;;;;25.03;15.97;;;4.30;99.80;;;;;;5088120;28;20223;-62
2023/12/06 01:18:04;;;;;;;22.63;15.50;;;4.30;99.80;;;;;;5082588;28;20196;-63
2023/12/06 01:20:31;;;;;;;23.83;15.50;;;4.30;99.80;;;;;;5086129;28;20286;-63
2023/12/06 01:22:58;;;;;;;23.23;15.33;;;4.30;99.90;;;;;;5075646;28;20299;-63
2023/12/06 01:25:25;;;;;;;24.47;16.33;;;4.40;99.90;;;;;;5079876;28;20201;-63
2023/12/06 01:27:53;;;;;;;21.97;15.40;;;4.40;99.90;;;;;;5083822;28;20204;-62
2023/12/06 01:30:20;;;;;;;24.63;16.17;;;4.40;99.80;;;;;;5085543;28;20209;-63
2023/12/06 01:32:47;;;;;;;23.40;15.50;;;4.40;99.80;;;;;;5083051;28;20232;-62
2023/12/06 01:35:14;;;;;;;22.23;14.87;;;4.40;99.80;;;;;;5083485;28;20225;-62
2023/12/06 01:37:41;;;;;;;23.53;16.00;;;4.40;99.80;;;;;;5084279;28;20223;-63
2023/12/06 01:40:09;;;;;;;22.60;15.07;;;4.40;99.80;;;;;;5087100;28;20295;-63
2023/12/06 01:42:36;;;;;;;20.90;14.97;;;4.40;99.70;;;;;;5085694;28;20544;-63
2023/12/06 01:45:04;;;;;;;22.63;15.03;;;4.30;99.70;;;;;;5081886;28;20690;-63
2023/12/06 01:47:33;;;;;;;20.77;14.50;;;4.40;99.70;;;;;;5087989;28;20201;-63
2023/12/06 01:50:03;;;;;;;18.63;14.00;;;4.40;99.70;;;;;;5084708;28;20238;-63
2023/12/06 01:52:32;;;;;;;19.87;14.60;;;4.30;99.70;;;;;;5081140;28;20214;-63
2023/12/06 01:54:59;;;;;;;20.40;14.17;;;4.30;99.60;;;;;;5084103;28;20189;-63
2023/12/06 01:57:29;;;;;;;18.23;13.77;;;4.30;99.70;;;;;;5076953;28;20205;-63
2023/12/06 01:59:57;;;;;;;20.77;14.77;;;4.30;99.70;;;;;;5078531;28;20215;-64
2023/12/06 02:02:25;;;;;;;22.00;14.53;;;4.30;99.70;;;;;;5082648;28;20240;-62
2023/12/06 02:04:53;;;;;;;19.43;14.20;;;4.30;99.70;;;;;;5076989;28;20252;-63
2023/12/06 02:07:21;;;;;;;24.97;14.93;;;4.30;99.70;;;;;;5084176;28;20204;-62
2023/12/06 02:09:48;;;;;;;19.47;14.83;;;4.30;99.60;;;;;;5081414;28;20209;-63
2023/12/06 02:12:15;;;;;;;19.30;13.90;;;4.30;99.60;;;;;;5083000;28;20204;-62
2023/12/06 02:14:42;;;;;;;20.67;13.80;;;4.30;99.60;;;;;;5083586;28;20211;-63
2023/12/06 02:17:10;;;;;;;19.03;13.30;;;4.30;99.60;;;;;;5085542;28;20205;-63
2023/12/06 02:19:39;;;;;;;19.43;12.83;;;4.30;99.60;;;;;;5085646;28;20197;-62
2023/12/06 02:22:07;;;;;;;20.30;13.17;;;4.30;99.50;;;;;;5085437;28;20236;-62
2023/12/06 02:24:36;;;;;;;17.20;12.47;;;4.30;99.60;;;;;;5081322;28;20278;-63
2023/12/06 02:27:03;;;;;;;18.13;13.27;;;4.30;99.60;;;;;;5083054;28;20296;-63
2023/12/06 02:29:30;;;;;;;18.63;13.87;;;4.30;99.60;;;;;;5084524;28;20776;-63
2023/12/06 02:31:57;;;;;;;18.97;13.40;;;4.20;99.60;;;;;;5085934;28;20196;-63
2023/12/06 02:34:26;;;;;;;18.27;13.17;;;4.20;99.60;;;;;;5087946;28;20203;-63
2023/12/06 02:37:01;;;;;;;16.43;12.43;;;4.20;99.60;;;;;;5083820;28;20204;-63
2023/12/06 02:39:34;;;;;;;14.47;12.03;;;4.20;99.50;;;;;;5078594;28;20228;-63
2023/12/06 02:42:02;;;;;;;18.37;12.43;;;4.20;99.50;;;;;;5082780;28;20498;-63
2023/12/06 02:44:29;;;;;;;17.00;12.60;;;4.20;99.50;;;;;;5072592;28;20212;-63
2023/12/06 02:46:56;;;;;;;16.63;11.93;;;4.20;99.50;;;;;;5073127;28;20209;-63
2023/12/06 02:49:23;;;;;;;15.57;11.63;;;4.20;99.50;;;;;;5084433;28;20216;-63
2023/12/06 02:51:51;;;;;;;15.03;10.63;;;4.10;99.50;;;;;;5079520;28;20218;-63
2023/12/06 02:54:18;;;;;;;15.43;10.40;;;4.20;99.50;;;;;;5073494;28;20197;-63
2023/12/06 02:56:45;;;;;;;16.23;11.80;;;4.10;99.50;;;;;;5080912;28;20280;-63
2023/12/06 02:59:12;;;;;;;15.20;11.00;;;4.10;99.40;;;;;;5077869;28;20849;-63
2023/12/06 03:01:46;;;;;;;14.10;10.00;;;4.10;99.40;;;;;;5082372;28;20207;-63
2023/12/06 03:04:13;;;;;;;17.07;10.80;;;4.10;99.40;;;;;;5081186;28;20293;-63
2023/12/06 03:06:40;;;;;;;14.73;11.17;;;4.00;99.30;;;;;;5085268;28;20262;-62
2023/12/06 03:09:08;;;;;;;14.73;11.03;;;4.00;99.60;;;;;;5083627;28;20221;-63
2023/12/06 03:11:35;;;;;;;13.67;10.33;;;3.90;99.20;;;;;;5078803;28;20248;-63
2023/12/06 03:14:02;;;;;;;13.53;10.07;;;3.90;99.20;;;;;;5083304;28;20203;-63
2023/12/06 03:16:29;;;;;;;15.97;11.40;;;3.80;99.20;;;;;;5086380;28;20548;-62
2023/12/06 03:18:56;;;;;;;13.00;10.07;;;3.80;99.30;;;;;;5082735;28;20209;-63
2023/12/06 03:21:23;;;;;;;15.27;11.27;;;3.80;99.20;;;;;;5080980;28;20208;-63
2023/12/06 03:23:51;;;;;;;16.63;11.10;;;3.70;99.30;;;;;;5083430;28;20269;-62
2023/12/06 03:26:18;;;;;;;16.33;11.37;;;3.70;99.30;;;;;;5081461;28;20208;-63
2023/12/06 03:28:45;;;;;;;14.03;10.83;;;3.70;99.30;;;;;;5081650;28;20208;-63
2023/12/06 03:31:12;;;;;;;16.63;11.30;;;3.60;99.30;;;;;;5082734;28;20200;-63
2023/12/06 03:33:40;;;;;;;17.13;12.00;;;3.60;99.30;;;;;;5084111;28;20193;-63
2023/12/06 03:36:12;;;;;;;15.13;11.30;;;3.60;99.40;;;;;;5084091;28;20213;-63
2023/12/06 03:38:40;;;;;;;15.87;11.13;;;3.60;99.40;;;;;;5081935;28;20215;-63
2023/12/06 03:41:08;;;;;;;18.40;11.90;;;3.60;99.30;;;;;;5082815;28;20201;-63
2023/12/06 03:43:35;;;;;;;18.40;11.17;;;3.60;99.30;;;;;;5064215;28;20221;-63
2023/12/06 03:46:03;;;;;;;17.83;11.90;;;3.60;99.30;;;;;;5081150;28;20750;-63
2023/12/06 03:48:30;;;;;;;17.40;11.57;;;3.50;99.30;;;;;;5082619;28;20241;-63
2023/12/06 03:50:57;;;;;;;20.27;12.07;;;3.50;99.30;;;;;;5081854;28;20193;-63
2023/12/06 03:53:24;;;;;;;18.60;12.30;;;3.50;99.40;;;;;;5079698;28;20531;-63
2023/12/06 03:55:51;;;;;;;21.40;13.10;;;3.50;99.40;;;;;;5083839;28;20205;-63
2023/12/06 03:58:18;;;;;;;18.37;12.43;;;3.50;99.40;;;;;;5090415;28;20204;-63
2023/12/06 04:00:46;;;;;;;16.73;11.17;;;3.40;99.30;;;;;;5077141;28;20228;-63
2023/12/06 04:03:14;;;;;;;14.87;11.50;;;3.40;99.30;;;;;;5078947;28;20239;-63
2023/12/06 04:05:44;;;;;;;16.80;11.87;;;3.40;99.40;;;;;;5082932;28;20196;-63
2023/12/06 04:08:11;;;;;;;17.10;11.77;;;3.40;99.40;;;;;;5078541;28;20200;-63
2023/12/06 04:10:38;;;;;;;15.60;11.43;;;3.40;99.40;;;;;;5074045;28;20215;-63
2023/12/06 04:13:06;;;;;;;18.43;11.63;;;3.30;99.40;;;;;;5080950;28;20269;-63
2023/12/06 04:15:33;;;;;;;15.23;10.80;;;3.30;99.40;;;;;;5081340;28;20196;-63
2023/12/06 04:18:00;;;;;;;19.97;12.07;;;3.30;99.40;;;;;;5064388;28;20213;-63
2023/12/06 04:20:27;;;;;;;16.83;11.60;;;3.30;99.50;;;;;;5080052;28;20211;-63
2023/12/06 04:22:54;;;;;;;19.10;11.73;;;3.30;99.50;;;;;;5083138;28;20197;-63
2023/12/06 04:25:22;;;;;;;18.57;12.07;;;3.30;99.50;;;;;;5072556;28;20212;-63
2023/12/06 04:27:49;;;;;;;15.10;11.53;;;3.30;99.60;;;;;;5082033;28;20209;-63
2023/12/06 04:30:16;;;;;;;17.20;11.07;;;3.30;99.50;;;;;;5082939;28;20292;-63
2023/12/06 04:32:43;;;;;;;17.50;10.97;;;3.40;99.50;;;;;;5082725;28;20196;-62
2023/12/06 04:35:11;;;;;;;15.10;10.63;;;3.40;99.50;;;;;;5067530;28;20198;-62
2023/12/06 04:37:38;;;;;;;15.97;11.00;;;3.30;99.50;;;;;;5086295;28;20210;-63
2023/12/06 04:40:07;;;;;;;13.33;10.20;;;3.30;99.40;;;;;;5081635;28;20712;-63
2023/12/06 04:42:34;;;;;;;16.83;10.73;;;3.30;99.60;;;;;;5066096;28;20201;-63
2023/12/06 04:45:02;;;;;;;19.10;12.07;;;3.30;99.30;;;;;;5084510;28;20244;-64
2023/12/06 04:47:29;;;;;;;16.93;11.50;;;3.20;99.30;;;;;;5081688;28;20261;-63
2023/12/06 04:49:56;;;;;;;17.23;11.13;;;3.20;99.30;;;;;;5080699;28;20209;-64
2023/12/06 04:52:24;;;;;;;16.40;10.73;;;3.20;99.30;;;;;;5080253;28;20202;-63
2023/12/06 04:54:51;;;;;;;19.17;12.53;;;3.20;99.30;;;;;;5070755;28;20208;-63
2023/12/06 04:57:19;;;;;;;18.53;11.30;;;3.20;99.30;;;;;;5075758;28;20197;-63
2023/12/06 04:59:47;;;;;;;19.83;12.23;;;3.20;99.40;;;;;;5069631;28;20287;-63
2023/12/06 05:02:14;;;;;;;18.53;12.83;;;3.20;99.40;;;;;;5072648;28;20294;-63
2023/12/06 05:04:41;;;;;;;17.10;12.17;;;3.20;99.40;;;;;;5076770;28;20554;-63
2023/12/06 05:07:08;;;;;;;19.83;12.60;;;3.20;99.40;;;;;;5083923;28;20525;-63
2023/12/06 05:09:36;;;;;;;21.10;13.53;;;3.30;99.40;;;;;;5088857;28;20220;-62
2023/12/06 05:12:03;;;;;;;21.30;13.83;;;3.30;99.30;;;;;;5087276;28;20650;-62
2023/12/06 05:14:30;;;;;;;20.67;13.60;;;3.30;99.30;;;;;;5082759;28;20208;-62
2023/12/06 05:16:57;;;;;;;19.67;12.83;;;3.30;99.20;;;;;;5085762;28;20292;-63
2023/12/06 05:19:24;;;;;;;18.37;12.17;;;3.20;99.10;;;;;;5082207;28;20206;-62
2023/12/06 05:21:53;;;;;;;20.07;14.03;;;3.20;99.10;;;;;;5087936;28;20203;-63
2023/12/06 05:24:20;;;;;;;19.13;11.93;;;3.20;99.00;;;;;;5084545;28;20238;-63
2023/12/06 05:26:47;;;;;;;18.07;12.83;;;3.10;99.00;;;;;;5083987;28;20196;-63
2023/12/06 05:29:15;;;;;;;20.50;12.90;;;3.10;99.00;;;;;;5086395;28;20217;-63
2023/12/06 05:31:42;;;;;;;21.13;13.27;;;3.00;99.00;;;;;;5083660;28;20200;-63
2023/12/06 05:34:09;;;;;;;19.77;12.33;;;3.00;99.00;;;;;;5084972;28;20208;-63
2023/12/06 05:36:36;;;;;;;18.67;12.90;;;3.00;99.00;;;;;;5082819;28;20247;-63
2023/12/06 05:39:05;;;;;;;19.03;13.03;;;3.00;99.10;;;;;;5089072;28;20915;-63
2023/12/06 05:41:32;;;;;;;22.00;13.67;;;3.00;99.10;;;;;;5084523;28;20204;-63
2023/12/06 05:43:59;;;;;;;22.67;13.87;;;2.90;99.10;;;;;;5084204;28;20200;-63
2023/12/06 05:46:26;;;;;;;23.47;14.17;;;3.00;99.10;;;;;;5072409;28;20207;-63
2023/12/06 05:48:53;;;;;;;26.50;13.93;;;2.90;99.10;;;;;;5086064;28;20204;-63
2023/12/06 05:51:21;;;;;;;18.37;12.93;;;2.90;99.10;;;;;;5086911;28;20590;-63
2023/12/06 05:53:49;;;;;;;23.37;13.97;;;2.90;99.20;;;;;;5085053;28;20543;-63
2023/12/06 05:56:16;;;;;;;17.70;12.93;;;2.90;99.20;;;;;;5087061;28;20213;-63
2023/12/06 05:58:43;;;;;;;21.60;13.03;;;3.00;99.30;;;;;;5077435;28;20718;-63
2023/12/06 06:01:10;;;;;;;20.43;13.13;;;3.00;99.20;;;;;;5085762;28;20203;-63
2023/12/06 06:03:37;;;;;;;21.33;13.67;;;3.00;99.30;;;;;;5084842;28;20315;-63
2023/12/06 06:06:08;;;;;;;17.13;12.57;;;3.00;99.30;;;;;;5080454;28;20207;-62
2023/12/06 06:08:35;;;;;;;20.53;13.53;;;3.00;99.30;;;;;;5083120;28;20205;-62
2023/12/06 06:11:04;;;;;;;20.87;14.17;;;3.00;99.30;;;;;;5089092;28;20223;-62
2023/12/06 06:13:31;;;;;;;21.43;13.77;;;3.10;99.30;;;;;;5087051;28;20303;-62
2023/12/06 06:15:58;;;;;;;20.63;13.30;;;3.00;99.30;;;;;;5079917;28;20208;-63
2023/12/06 06:18:27;;;;;;;23.33;13.63;;;3.10;99.30;;;;;;5083796;28;20203;-62
2023/12/06 06:20:55;;;;;;;16.57;12.33;;;3.10;99.20;;;;;;5083497;28;20213;-63
2023/12/06 06:23:22;;;;;;;21.07;13.90;;;3.00;99.10;;;;;;5084569;28;20574;-63
2023/12/06 06:25:52;;;;;;;18.33;13.47;;;3.00;99.10;;;;;;5081007;28;20616;-63
2023/12/06 06:28:19;;;;;;;18.47;12.90;;;3.00;99.00;;;;;;5083465;28;20239;-62
2023/12/06 06:30:46;;;;;;;25.47;13.50;;;3.00;99.10;;;;;;5084605;28;20223;-63
2023/12/06 06:33:13;;;;;;;21.73;14.40;;;2.90;99.00;;;;;;5083977;28;20230;-63
2023/12/06 06:35:40;;;;;;;22.13;15.07;;;2.90;99.00;;;;;;5084443;28;20192;-63
2023/12/06 06:38:07;;;;;;;25.13;15.53;;;2.90;99.00;;;;;;5086031;28;20194;-62
2023/12/06 06:40:35;;;;;;;22.63;14.77;;;2.90;99.00;;;;;;5087085;28;20206;-62
2023/12/06 06:43:02;;;;;;;19.63;13.73;;;2.90;99.00;;;;;;5082134;28;20200;-63
2023/12/06 06:45:29;;;;;;;25.43;15.07;;;2.90;99.10;;;;;;5082663;28;20207;-62
2023/12/06 06:47:56;;;;;;;23.70;14.50;;;2.90;99.10;;;;;;5082390;28;20204;-62
2023/12/06 06:50:23;;;;;;;21.63;14.33;;;2.80;99.20;;;;;;5081506;28;20709;-63
2023/12/06 06:52:50;;;;;;;21.47;14.53;;;2.90;99.20;;;;;;5069057;28;20247;-62
2023/12/06 06:55:18;;;;;;;27.80;15.03;;;2.90;99.10;;;;;;5084583;28;20190;-63
2023/12/06 06:57:45;;;;;;;27.13;14.17;;;2.90;99.10;;;;;;5074945;28;20773;-63
2023/12/06 07:00:16;;;;;;;19.97;14.10;;;2.80;99.00;;;;;;5083483;28;20234;-63
2023/12/06 07:02:57;;;;;;;21.83;14.53;;;2.80;99.00;;;;;;5084267;28;20819;-62
2023/12/06 07:05:24;;;;;;;19.63;13.73;;;2.80;99.10;;;;;;5076338;28;20194;-62
2023/12/06 07:07:52;;;;;;;24.50;14.70;;;2.80;99.10;;;;;;5082585;28;20201;-62
2023/12/06 07:10:20;;;;;;;21.67;14.20;;;2.80;99.10;;;;;;5076952;28;20231;-63
2023/12/06 07:12:47;;;;;;;21.53;13.60;;;2.80;99.10;;;;;;5085837;28;20199;-63
2023/12/06 07:15:17;;;;;;;23.13;14.43;;;2.80;99.20;;;;;;5080309;28;20208;-63
2023/12/06 07:17:45;;;;;;;19.87;13.30;;;2.80;99.20;;;;;;5078623;28;20196;-62
2023/12/06 07:20:13;;;;;;;20.80;13.37;;;2.80;99.20;;;;;;5082984;28;20261;-62
2023/12/06 07:22:41;;;;;;;17.93;12.50;;;2.80;99.30;;;;;;5087415;28;20724;-62
2023/12/06 07:25:08;;;;;;;22.97;14.27;;;2.80;99.30;;;;;;5087056;28;20219;-63
2023/12/06 07:27:36;;;;;;;20.93;13.93;;;2.80;99.30;;;;;;5083796;28;20272;-62
2023/12/06 07:30:04;;;;;;;23.43;14.93;;;2.80;99.30;;;;;;5078616;28;20273;-63
2023/12/06 07:32:32;;;;;;;20.53;13.80;;;2.80;99.30;;;;;;5081659;28;20500;-62
2023/12/06 07:35:15;;;;;;;22.77;14.13;;;2.80;99.30;;;;;;5081585;28;20197;-62
2023/12/06 07:37:42;;;;;;;22.17;14.20;;;2.80;99.30;;;;;;5080651;28;20222;-62
2023/12/06 07:40:11;;;;;;;22.43;14.30;;;2.90;99.40;;;;;;5082086;28;20539;-62
2023/12/06 07:42:38;;;;;;;21.03;13.90;;;2.90;99.50;;;;;;5081368;28;20197;-63
2023/12/06 07:45:11;;;;;;;21.50;13.93;;;3.00;99.50;;;;;;5081010;28;20204;-63
2023/12/06 07:47:39;;;;;;;22.57;13.63;;;3.10;99.50;;;;;;5080640;28;20247;-63
2023/12/06 07:50:08;;;;;;;19.13;13.93;;;3.10;99.50;;;;;;5082472;28;20229;-62
2023/12/06 07:52:37;;;;;;;23.07;14.00;;;3.20;99.60;;;;;;5086178;28;20196;-62
2023/12/06 07:55:07;;;;;;;19.00;12.93;;;3.30;99.80;;;;;;5067767;28;20193;-62
2023/12/06 07:57:36;;;;;;;22.47;13.27;;;3.40;99.50;;;;;;5080036;28;20194;-62
2023/12/06 08:00:13;;;;;;;22.50;13.63;;;3.50;99.60;;;;;;5078984;28;20204;-63
2023/12/06 08:02:42;;;;;;;21.20;14.33;;;3.50;99.60;;;;;;5083307;28;20201;-63
2023/12/06 08:05:10;;;;;;;20.63;13.50;;;3.70;99.60;;;;;;5078993;28;20198;-62
2023/12/06 08:07:39;;;;;;;20.77;14.23;;;3.80;99.50;;;;;;5080441;28;20216;-63
2023/12/06 08:10:12;;;;;;;18.47;12.97;;;3.90;99.50;;;;;;5079245;28;20303;-63
2023/12/06 08:12:40;;;;;;;18.63;12.23;;;3.90;99.50;;;;;;5080236;28;20212;-63
2023/12/06 08:15:08;;;;;;;20.80;13.00;;;4.10;99.40;;;;;;5063478;28;20205;-62
2023/12/06 08:17:35;;;;;;;17.00;12.07;;;4.10;99.30;;;;;;5062030;28;20204;-62
2023/12/06 08:20:05;;;;;;;16.83;12.50;;;4.20;99.20;;;;;;5072618;28;20205;-62
2023/12/06 08:22:32;;;;;;;19.77;12.33;;;4.30;99.20;;;;;;5079182;28;20201;-62
2023/12/06 08:25:00;;;;;;;18.33;11.43;;;4.40;99.20;;;;;;5082263;28;20204;-63
2023/12/06 08:27:29;;;;;;;14.87;10.97;;;4.50;99.10;;;;;;5082886;28;20670;-63
2023/12/06 08:29:57;;;;;;;16.43;10.70;;;4.60;99.00;;;;;;5084789;28;20315;-62
2023/12/06 08:32:26;;;;;;;16.67;11.00;;;4.70;98.90;;;;;;5081204;28;20287;-62
2023/12/06 08:34:54;;;;;;;14.87;10.90;;;4.80;98.80;;;;;;5082190;28;20193;-62
2023/12/06 08:37:21;;;;;;;15.20;9.57;;;4.80;98.70;;;;;;5077372;28;20197;-63
2023/12/06 08:39:50;;;;;;;12.87;9.60;;;4.90;98.60;;;;;;5084505;28;20186;-62
2023/12/06 08:42:17;;;;;;;15.17;10.67;;;5.00;98.50;;;;;;5086565;28;20201;-62
2023/12/06 08:44:44;;;;;;;14.00;10.40;;;5.10;98.40;;;;;;5084054;28;20230;-63
2023/12/06 08:47:17;;;;;;;10.73;8.53;;;5.20;98.30;;;;;;5088652;28;20235;-63
2023/12/06 08:49:45;;;;;;;13.30;9.50;;;5.30;98.20;;;;;;5086427;28;20307;-63
2023/12/06 08:52:12;;;;;;;14.93;10.87;;;5.30;98.00;;;;;;5081851;28;20216;-63
2023/12/06 08:54:39;;;;;;;13.33;9.60;;;5.40;98.00;;;;;;5089246;28;20196;-63
2023/12/06 08:57:07;;;;;;;15.33;10.67;;;5.50;97.90;;;;;;5085294;28;20276;-63
2023/12/06 08:59:34;;;;;;;17.40;11.37;;;5.50;97.70;;;;;;5084645;28;20212;-63
2023/12/06 09:02:01;;;;;;;14.10;10.43;;;5.60;97.60;;;;;;5082836;28;20197;-63
2023/12/06 09:04:28;;;;;;;19.23;10.93;;;5.60;97.50;;;;;;5086091;28;20257;-62
2023/12/06 09:06:56;;;;;;;18.40;12.03;;;5.70;97.40;;;;;;5088844;28;20193;-62
2023/12/06 09:09:23;;;;;;;25.07;14.63;;;5.70;97.20;;;;;;5086449;28;20196;-63
2023/12/06 09:11:50;;;;;;;22.10;14.10;;;5.80;97.10;;;;;;5081932;28;20237;-63
2023/12/06 09:14:19;;;;;;;21.90;14.07;;;5.80;97.00;;;;;;5084082;28;20270;-63
2023/12/06 09:16:47;;;;;;;16.30;12.67;;;5.90;96.90;;;;;;5087221;28;20284;-62
2023/12/06 09:19:14;;;;;;;20.40;13.27;;;6.00;96.90;;;;;;5082724;28;20642;-63
2023/12/06 09:21:46;;;;;;;20.57;13.03;;;6.00;96.80;;;;;;5082027;28;20201;-63
2023/12/06 09:24:14;;;;;;;20.23;13.23;;;6.10;96.70;;;;;;5083948;28;20510;-62
2023/12/06 09:26:41;;;;;;;22.00;12.83;;;6.20;96.70;;;;;;5081807;28;20662;-63
2023/12/06 09:29:10;;;;;;;22.00;14.37;;;6.20;96.60;;;;;;5084845;28;20207;-62
2023/12/06 09:31:37;;;;;;;23.00;13.70;;;6.30;96.60;;;;;;5082882;28;20232;-62
2023/12/06 09:34:05;;;;;;;23.37;15.70;;;6.40;96.60;;;;;;5086707;28;20193;-62
2023/12/06 09:36:33;;;;;;;24.33;16.27;;;6.40;96.60;;;;;;5085987;28;20189;-62
2023/12/06 09:39:00;;;;;;;25.13;16.33;;;6.50;96.50;;;;;;5085025;28;20623;-63
2023/12/06 09:41:30;;;;;;;24.17;16.63;;;6.50;96.40;;;;;;5069146;28;20673;-63
2023/12/06 09:43:59;;;;;;;23.67;16.33;;;6.60;96.20;;;;;;5082229;28;20623;-63
2023/12/06 09:46:26;;;;;;;28.30;19.33;;;6.70;96.20;;;;;;5087715;28;20197;-62
2023/12/06 09:48:54;;;;;;;25.87;18.63;;;6.70;95.90;;;;;;5081570;28;20205;-62
2023/12/06 09:51:22;;;;;;;31.77;19.20;;;6.80;95.60;;;;;;5082838;28;20516;-63
2023/12/06 09:53:49;;;;;;;26.90;18.20;;;6.80;95.50;;;;;;5083486;28;20194;-63
2023/12/06 09:56:17;;;;;;;26.00;18.83;;;6.80;95.30;;;;;;5084546;28;20274;-63
2023/12/06 09:58:45;;;;;;;24.60;18.17;;;6.90;95.10;;;;;;5084863;28;20571;-62
2023/12/06 10:01:12;;;;;;;30.10;19.13;;;6.90;94.80;;;;;;5082636;28;20526;-62
2023/12/06 10:03:40;;;;;;;27.47;18.57;;;7.00;94.90;;;;;;5086588;28;20238;-63
2023/12/06 10:06:08;;;;;;;30.50;20.10;;;7.00;95.00;;;;;;5086174;28;20578;-63
2023/12/06 10:08:36;;;;;;;28.40;19.00;;;7.10;95.00;;;;;;5087753;28;20198;-63
2023/12/06 10:11:07;;;;;;;27.93;19.13;;;7.20;95.10;;;;;;5081591;28;20221;-63
2023/12/06 10:13:41;;;;;;;27.90;18.70;;;7.20;95.10;;;;;;5079928;28;20218;-63
2023/12/06 10:16:21;;;;;;;28.13;19.27;;;7.40;95.10;;;;;;5086861;28;20257;-62
2023/12/06 10:18:55;;;;;;;30.77;20.40;;;7.40;95.00;;;;;;5088275;28;20206;-62
2023/12/06 10:21:22;;;;;;;29.77;19.43;;;7.50;94.70;;;;;;5085405;28;20193;-62
2023/12/06 10:23:57;;;;;;;31.00;19.17;;;7.50;94.60;;;;;;5084307;28;20202;-63
2023/12/06 10:26:28;;;;;;;29.80;20.37;;;7.60;94.50;;;;;;5083894;28;20210;-62
2023/12/06 10:28:58;;;;;;;30.17;20.03;;;7.60;94.40;;;;;;5069326;28;20359;-62
2023/12/06 10:31:26;;;;;;;29.07;19.07;;;7.70;94.50;;;;;;5067841;28;20228;-62
2023/12/06 10:33:55;;;;;;;30.50;20.77;;;7.80;94.50;;;;;;5084887;28;20189;-63
2023/12/06 10:36:27;;;;;;;30.07;19.03;;;7.80;94.40;;;;;;5057955;28;20293;-63
2023/12/06 10:38:57;;;;;;;29.10;20.43;;;7.90;94.30;;;;;;5086479;28;20579;-63
2023/12/06 10:41:27;;;;;;;29.97;20.53;;;7.90;94.20;;;;;;5085542;28;20544;-64
2023/12/06 10:43:57;;;;;;;30.50;20.77;;;8.00;94.10;;;;;;5085157;28;20514;-62
2023/12/06 10:46:26;;;;;;;30.20;20.43;;;8.00;93.90;;;;;;5084624;28;20720;-63
2023/12/06 10:48:55;;;;;;;31.33;20.17;;;8.00;93.60;;;;;;5051810;28;20544;-63
2023/12/06 10:51:24;;;;;;;30.60;19.93;;;8.10;93.40;;;;;;5081360;28;20212;-62
2023/12/06 10:53:54;;;;;;;29.87;20.43;;;8.20;93.40;;;;;;5084877;28;20212;-63
2023/12/06 10:56:21;;;;;;;32.47;20.07;;;8.20;93.40;;;;;;5082715;28;20275;-63
2023/12/06 10:58:50;;;;;;;28.60;19.37;;;8.30;93.50;;;;;;5081930;28;20195;-63
2023/12/06 11:01:18;;;;;;;30.40;19.40;;;8.40;92.90;;;;;;5080167;28;20203;-63
2023/12/06 11:03:45;;;;;;;25.43;17.60;;;8.40;92.10;;;;;;5076546;28;20581;-63
2023/12/06 11:06:59;;;;;;;28.00;18.67;;;8.40;91.40;;;;;;5080737;28;20220;-62
2023/12/06 11:09:54;;;;;;;30.07;19.43;;;8.30;91.60;;;;;;5082738;28;20220;-63
2023/12/06 11:12:39;;;;;;;28.37;18.87;;;8.40;92.10;;;;;;5073443;28;20217;-63
2023/12/06 11:15:45;;;;;;;27.63;18.97;;;8.50;92.20;;;;;;5079760;28;20205;-62
2023/12/06 11:18:17;;;;;;;29.23;18.53;;;8.60;92.30;;;;;;5081157;28;20681;-62
2023/12/06 11:20:45;;;;;;;30.50;20.00;;;8.70;92.00;;;;;;5083329;28;20253;-63
2023/12/06 11:23:16;;;;;;;30.17;18.37;;;8.70;91.10;;;;;;5079101;28;20976;-63
2023/12/06 11:25:44;;;;;;;35.43;20.80;;;8.70;91.00;;;;;;5086506;28;20198;-62
2023/12/06 11:28:20;;;;;;;29.37;19.73;;;8.70;91.20;;;;;;5079665;28;20640;-62
2023/12/06 11:30:51;;;;;;;28.03;21.03;;;8.80;91.40;;;;;;5068311;28;20645;-62
2023/12/06 11:33:18;;;;;;;30.03;20.97;;;8.90;91.60;;;;;;5083909;28;20223;-63
2023/12/06 11:35:55;;;;;;;28.30;19.27;;;9.00;91.40;;;;;;5083599;28;20206;-63
2023/12/06 11:38:37;;;;;;;30.23;19.37;;;9.10;91.20;;;;;;5083046;28;20201;-63
2023/12/06 11:41:04;;;;;;;32.53;20.07;;;9.10;91.30;;;;;;5047871;28;20696;-63
2023/12/06 11:43:34;;;;;;;30.70;19.67;;;9.20;90.90;;;;;;5084938;28;20682;-63
2023/12/06 11:46:03;;;;;;;27.10;18.83;;;9.20;90.80;;;;;;5078850;28;20206;-63
2023/12/06 11:48:33;;;;;;;30.10;20.20;;;9.30;91.00;;;;;;5085382;28;20299;-63
2023/12/06 11:51:01;;;;;;;27.60;18.50;;;9.40;91.10;;;;;;5075833;28;20223;-62
2023/12/06 11:53:29;;;;;;;27.70;18.60;;;9.50;91.20;;;;;;5084042;28;20280;-63
2023/12/06 11:55:57;;;;;;;25.50;19.57;;;9.60;91.20;;;;;;5079593;28;20204;-63
2023/12/06 11:58:31;;;;;;;25.80;19.43;;;9.60;91.10;;;;;;5084812;28;20200;-62
2023/12/06 12:01:01;;;;;;;27.03;19.37;;;9.70;91.10;;;;;;5084777;28;20267;-63
2023/12/06 12:03:30;;;;;;;23.30;18.13;;;9.90;91.10;;;;;;5076676;28;20302;-63
2023/12/06 12:05:58;;;;;;;28.03;19.50;;;10.00;91.10;;;;;;5082208;28;20229;-63
2023/12/06 12:08:27;;;;;;;28.13;19.27;;;10.00;90.90;;;;;;5087189;28;20198;-62
2023/12/06 12:10:54;;;;;;;28.47;19.90;;;10.10;90.90;;;;;;5080184;28;20285;-62
2023/12/06 12:13:23;;;;;;;32.87;19.80;;;10.20;90.50;;;;;;5079211;28;20213;-63
2023/12/06 12:15:54;;;;;;;24.27;18.17;;;10.20;90.50;;;;;;5065942;28;20203;-63
2023/12/06 12:18:24;;;;;;;25.27;18.53;;;10.20;90.40;;;;;;5080892;28;20234;-63
2023/12/06 12:20:52;;;;;;;25.43;18.47;;;10.30;90.40;;;;;;5078990;28;20643;-63
2023/12/06 12:23:19;;;;;;;27.67;17.90;;;10.30;90.30;;;;;;5080541;28;20208;-63
2023/12/06 12:25:47;;;;;;;28.90;19.50;;;10.30;90.00;;;;;;5079916;28;20228;-62
2023/12/06 12:28:19;;;;;;;24.07;17.87;;;10.30;89.70;;;;;;5081326;28;20631;-62
2023/12/06 12:30:49;;;;;;;23.57;17.23;;;10.40;90.20;;;;;;5081021;28;20204;-62
2023/12/06 12:33:17;;;;;;;25.67;18.27;;;10.40;89.40;;;;;;5065166;28;20235;-62
2023/12/06 12:35:45;;;;;;;24.13;18.07;;;10.30;88.40;;;;;;5080358;28;20199;-63
2023/12/06 12:38:13;;;;;;;25.27;18.03;;;10.30;88.90;;;;;;5079538;28;20203;-63
2023/12/06 12:40:41;;;;;;;25.13;17.17;;;10.30;89.40;;;;;;5085144;28;20212;-62
2023/12/06 12:43:11;;;;;;;24.67;18.23;;;10.30;89.40;;;;;;5084465;28;20315;-63